Francisco Marquez

Chefscout - Cruz Azul
20 Feb 2028
Sonntag
Verarbeitung

Persönlichkeit

Anpassungsfähigkeit (5) Ehrgeiz (20) Kontroverse (9) Loyalität (8) Druck (15) Professionalität (18) Fairness (13) Temperament (11)

Profil

Trainerstil Demokratisch
Lizenz Nationale A
Entschlossenheit 11
Menschenführung 12
Motivation 6
Disziplin 10
Arbeitszufriedenheit
100%
Ermüdung
0%
Rolle Chefscout
Gehalt 34.3K p/W
Vertrag 14.03.2029

Leistung

Verhalten Gut
Trainingseffektivität
58%
Spielerentwicklung
60%
Verletzungsprävention
35%
Taktische Umsetzung
70%

Letzte Ereignisse

Nahm an einer Scouting-Besprechung teil jetzt
Empfahl ein Transferziel jetzt
Empfahl ein Transferziel jetzt
Nahm an einer Scouting-Besprechung teil 7T her
Empfahl ein Transferziel 7T her
Empfahl ein Transferziel 7T her
Empfahl ein Transferziel 7T her
Empfahl ein Transferziel 7T her

Aktuell beobachtet

183
Spieler Verein Status Fähigkeit Vertrauen Beobachtet Zuletzt beobachtet Letzte Stimme
Lewis Morgan SuperSport United Aktiv 131 / 122 40% 9 31.01.2028 -
Nuno Moreira Vasco da Gama Aktiv 135 / 138 40% 1 31.01.2028 -
Tiago Palacios Estudiantes Verloren 132 / 129 40% 1 31.01.2028 -
Alan Medina Pumas UNAM Aktiv 112 / 108 93% 1 17.01.2028 Befürworten
Diego López Rayo Vallecano Aktiv 142 / 148 40% 1 12.01.2028 -
Andrés Martín Racing Santander Aktiv 141 / 136 40% 1 12.01.2028 -
Federico Pereira Nacional Aktiv 135 / 135 68% 1 01.01.2028 Befürworten
Nicolás Fernández Mercau Independiente Aktiv 134 / 134 67% 1 01.01.2028 Befürworten
Sebastián Ramírez Jaguares Aktiv 107 / 109 40% 5 28.12.2027 -
Ronan Kpakio Cardiff City Aktiv 123 / 119 40% 3 28.12.2027 -
Dmitry Pestryakov Dinamo Moscow Aktiv 116 / 119 40% 3 28.12.2027 -
Mikkel Hope Haugesund Aktiv 99 / 111 40% 11 26.12.2027 -
Izan Merino Málaga Aktiv 128 / 134 40% 7 26.12.2027 -
David Valencia Alianza Petrolera Aktiv 126 / 136 40% 5 26.12.2027 -
Hervin Goyes Deportivo Pasto Aktiv 107 / 112 40% 10 25.12.2027 -
Luis Otávio Colorado Rapids Aktiv 111 / 123 40% 2 25.12.2027 -
Celías Ingenthron Vélez Aktiv 117 / 119 40% 8 25.12.2027 -
Marc Bernal Real Sociedad Aktiv 149 / 156 40% 12 24.12.2027 -
Héctor Fort Real Sociedad Aktiv 141 / 151 40% 3 24.12.2027 -
Alejandro Almaraz Nueva Chicago Aktiv 109 / 108 40% 10 23.12.2027 -
Olaniyi Saheed Kwara United Aktiv 94 / 93 40% 7 23.12.2027 -
Josh Nichols Tranmere Rovers Aktiv 119 / 125 40% 4 22.12.2027 -
Archie Gray Derby County Aktiv 150 / 155 40% 4 18.12.2027 -
Caleb Yirenkyi Coventry City Aktiv 142 / 147 40% 10 14.12.2027 -
Felipe Faúndez O'Higgins Aktiv 101 / 100 40% 8 12.12.2027 -
Jorge Salinas Racing Santander Aktiv 129 / 128 40% 12 10.12.2027 -
Agustín Obregón River Plate Aktiv 114 / 126 40% 3 08.12.2027 -
Joel Ezra Enyimba Aktiv 96 / 111 40% 3 08.12.2027 -
Mads Bomholt Stabaek Aktiv 108 / 112 40% 7 30.11.2027 -
Ricky Atletico Venezuela Aktiv 97 / 96 40% 5 28.11.2027 -
Juan Morán Godoy Cruz Aktiv 108 / 121 40% 6 28.11.2027 -
Felipe Obradovich Ferro Carril Oeste Aktiv 107 / 117 40% 3 25.11.2027 -
Mauro Carrizo Atlético Tucumán Aktiv 101 / 106 40% 1 20.11.2027 -
Nazareno Roselli Defensa y Justicia Aktiv 112 / 121 40% 2 06.11.2027 -
Matías Gómez Granada Aktiv 117 / 134 40% 2 01.11.2027 -
Juan Giménez Celta Aktiv 120 / 116 40% 1 01.11.2027 -
Ángel Aguayo Sol de America Aktiv 95 / 101 40% 3 31.10.2027 -
Josh King Chelsea Aktiv 145 / 158 40% 1 21.10.2027 -
Teo Rodríguez Pagano River Plate Aktiv 116 / 120 40% 1 04.10.2027 -
Gabriel Moscardo Paris Saint-Germain Aktiv 131 / 138 40% 1 06.09.2027 -
Yusi Alavés Aktiv 133 / 133 40% 1 06.09.2027 -
Luca Langoni Colorado Rapids Aktiv 134 / 129 40% 1 23.08.2027 -
Cheikh Sabaly Vancouver Whitecaps Aktiv 127 / 126 40% 1 23.08.2027 -
Luka Jović AEK Aktiv 144 / 149 40% 1 23.08.2027 -
Hany Mukhtar Spezia Aktiv 138 / 146 40% 7 13.07.2027 -
Álex Forés Burgos Aktiv 135 / 140 40% 1 13.07.2027 -
Jon Morcillo Almería Aktiv 140 / 137 40% 2 12.07.2027 -
Oli McBurnie Hull City Aktiv 141 / 142 40% 12 06.07.2027 -
Yousef Salech Cardiff City Aktiv 130 / 131 40% 13 06.07.2027 -
Roger Brugué Levante Aktiv 131 / 128 40% 1 30.06.2027 -
Jon Bautista Eibar Aktiv 130 / 121 40% 1 30.06.2027 -
Urko González Espanyol Aktiv 140 / 145 40% 1 28.06.2027 -
Iván Martín Racing Santander Aktiv 145 / 149 40% 1 28.06.2027 -
Roberto López Leganés Aktiv 133 / 137 40% 1 28.06.2027 -
Tom Cannon Sheffield United Aktiv 129 / 123 40% 11 24.06.2027 -
Callum O'Hare Sheffield United Aktiv 133 / 138 40% 6 24.06.2027 -
Bertrand Traoré Sunderland Aktiv 135 / 133 40% 6 14.06.2027 -
Ozziel Herrera Tigres Aktiv 134 / 130 40% 21 31.05.2027 -
Dany Mota Monza Aktiv 132 / 128 40% 1 31.05.2027 -
Aune Heggebø West Bromwich Albion Aktiv 131 / 123 40% 12 28.05.2027 -
Soufiane Rahimi Guadalajara Aktiv 140 / 135 40% 13 27.05.2027 -
Hwang Hee-Chan Wolverhampton Aktiv 132 / 128 40% 5 26.05.2027 -
Ilyas Ansah Hull City Aktiv 134 / 142 40% 10 25.05.2027 -
Robert Mizo Ashanti Gold Aktiv 107 / 108 40% 2 25.05.2027 -
Mathias Jørgensen Blackburn Rovers Aktiv 122 / 123 40% 2 25.05.2027 -
Richard Koné Queens Park Rangers Aktiv 124 / 120 40% 6 24.05.2027 -
Bojan Radulović Huddersfield Town Aktiv 116 / 121 40% 1 24.05.2027 -
Lorent Tolaj Plymouth Argyle Aktiv 121 / 122 40% 2 23.05.2027 -
Christian Saydee Wigan Athletic Aktiv 114 / 105 40% 2 23.05.2027 -
Luis Vázquez Birmingham Aktiv 132 / 136 40% 9 22.05.2027 -
André Silva Tondela Aktiv 131 / 127 40% 3 22.05.2027 -
Malik Mothersille Stockport County Aktiv 116 / 107 40% 1 21.05.2027 -
Petar Musa Adana Demirspor Aktiv 140 / 136 40% 13 18.05.2027 -
Iwan Morgan Grimsby Town Aktiv 110 / 121 40% 1 10.05.2027 -
Keinan Davis Udinese Aktiv 136 / 137 40% 3 07.05.2027 -
Hugo Cuypers Monterrey Aktiv 132 / 121 40% 9 06.05.2027 -
Lee Bonis Chesterfield Aktiv 106 / 108 40% 2 04.05.2027 -
Zian Flemming Ipswich Town Aktiv 130 / 126 40% 7 02.05.2027 -
Sascha Britschgi Padova Aktiv 122 / 130 40% 1 02.05.2027 -
Mees Rijks Bristol Rovers Aktiv 116 / 112 40% 1 02.05.2027 -
Ekain Orobengoa Real Sociedad Aktiv 99 / 98 40% 1 30.04.2027 -
Dom Ballard Leyton Orient Aktiv 124 / 120 40% 3 29.04.2027 -
Dylan Lawlor Cardiff City Aktiv 114 / 123 40% 1 27.04.2027 -
Keagan Tau Ajax Cape Town Aktiv 96 / 108 40% 1 27.04.2027 -
Rhian Brewster Oxford United Aktiv 118 / 126 40% 1 25.04.2027 -
Che Adams Torino Aktiv 144 / 136 40% 2 21.04.2027 -
Jayden Wareham Barnet Aktiv 105 / 96 40% 1 16.04.2027 -
Kerem Aktürkoğlu Fenerbahce Aktiv 141 / 142 40% 3 11.04.2027 -
Job Ochieng Real Sociedad Aktiv 107 / 114 40% 2 10.04.2027 -
Tyrese Campbell Sheffield United Aktiv 131 / 133 40% 3 03.04.2027 -
Evidence Makgopa Orlando Pirates Aktiv 115 / 120 40% 2 02.04.2027 -
José Pachuca Puebla Aktiv 107 / 115 40% 2 02.04.2027 -
Ernie Weaver AFC Wimbledon Aktiv 110 / 122 40% 1 02.04.2027 -
Niall Ennis Blackpool Aktiv 113 / 113 40% 1 30.03.2027 -
Valentin Atangana Al-Ahli Aktiv 126 / 128 40% 1 25.03.2027 -
Guilherme Ankaragucu Aktiv 128 / 127 40% 2 24.03.2027 -
Joe Gelhardt Hull City Aktiv 135 / 132 40% 1 24.03.2027 -
Bamba Dieng Crvena Zvezda Aktiv 128 / 128 40% 4 17.03.2027 -
Cheveyo Tsawa Club Brugge Aktiv 118 / 131 40% 1 15.03.2027 -
Cemran Dansin Orlando Pirates Aktiv 113 / 107 40% 1 15.03.2027 -
Joaquin Seys Club Brugge Aktiv 128 / 137 40% 1 15.03.2027 -
Tiago Freitas Benfica Aktiv 106 / 113 40% 1 13.03.2027 -
Christos Mouzakitis Hull City Aktiv 134 / 134 40% 1 13.03.2027 -
Yusuke Matsuo Esteghlal Aktiv 131 / 132 40% 2 10.03.2027 -
Mandla Mahlangu Ajax Cape Town Aktiv 105 / 109 40% 1 09.03.2027 -
Nicolò Tresoldi Club Brugge Aktiv 136 / 143 40% 13 07.03.2027 -
Hlompho Lorch Ajax Cape Town Aktiv 98 / 103 40% 1 07.03.2027 -
Martim Cunha Porto Aktiv 103 / 99 40% 1 07.03.2027 -
Adnan Courtois KV Oostende Aktiv 141 / 126 40% 12 05.03.2027 -
Adriano Bertaccini Anderlecht Aktiv 126 / 130 40% 4 01.03.2027 -
Shahriar Dejagah Tractor Aktiv 122 / 124 40% 2 28.02.2027 -
Karim Karimi Siah Jamegan Aktiv 108 / 105 40% 1 26.02.2027 -
Will Lankshear Middlesbrough Aktiv 129 / 121 40% 1 19.02.2027 -
Etiosa Ighodaro Kaizer Chiefs Aktiv 112 / 102 40% 2 16.02.2027 -
Efraín Álvarez Guadalajara Aktiv 129 / 128 40% 4 13.02.2027 -
Lassina Traoré Shakhtar Aktiv 124 / 110 40% 2 13.02.2027 -
Róbert Boženík Newcastle United Aktiv 128 / 131 40% 1 12.02.2027 -
Adonis Frías Atlas Aktiv 132 / 124 40% 3 08.02.2027 -
Richard Ledezma Guadalajara Aktiv 133 / 129 40% 2 08.02.2027 -
Jesús Angulo Tigres Aktiv 138 / 139 40% 1 07.02.2027 -
Christos Zafeiris Tigres Aktiv 142 / 139 40% 1 07.02.2027 -
Shea Charles Southampton Aktiv 131 / 130 40% 1 05.02.2027 -
Andrew Robertson Tottenham Aktiv 156 / 153 40% 1 05.02.2027 -
Harry Clarke Preston Aktiv 127 / 135 40% 1 04.02.2027 -
Luis Romo Guadalajara Aktiv 138 / 141 40% 1 04.02.2027 -
Leon Goretzka Aston Villa Aktiv 159 / 149 40% 1 03.02.2027 -
Ross McCrorie Bristol City Aktiv 122 / 120 40% 1 03.02.2027 -
Adalberto Carrasquilla Pumas UNAM Aktiv 123 / 121 40% 1 01.02.2027 -
Rodrigo Echeverría Leon Aktiv 126 / 135 40% 1 01.02.2027 -
Luís Esteves Atlas Aktiv 124 / 124 83% 1 18.01.2027 Befürworten
Themba Ngcobo SuperSport United Aktiv 118 / 114 40% 3 04.01.2027 -
Moussa Dembélé CR Belouizdad Aktiv 139 / 138 40% 1 28.12.2026 -
Ruben van Bommel Ferencvaros Aktiv 138 / 125 40% 4 27.12.2026 -
Manfred Ugalde Spartak Moscow Aktiv 135 / 126 40% 8 26.12.2026 -
Bento Al-Nassr Aktiv 129 / 141 40% 2 17.12.2026 -
Felipe Parra Envigado Aktiv 126 / 131 40% 1 17.12.2026 -
Eddie Nketiah Crystal Palace Aktiv 145 / 137 40% 1 12.12.2026 -
Tomás González Piast Aktiv 119 / 116 40% 3 08.12.2026 -
Nicolás Cordero Aldosivi Aktiv 123 / 118 40% 2 05.12.2026 -
Diego Valdés Vélez Aktiv 126 / 136 40% 4 05.12.2026 -
Alexis Cuello San Lorenzo Aktiv 122 / 122 40% 2 02.12.2026 -
Mauro Silveira Junior Aktiv 118 / 118 40% 2 01.12.2026 -
Freddy Gomez La Equidad Aktiv 137 / 139 40% 2 30.11.2026 -
Esteban Glellel Quilmes Aktiv 123 / 110 40% 1 26.11.2026 -
Erick Reyes Toluca Aktiv 143 / 144 40% 1 25.11.2026 -
Federico Varese Racing Aktiv 107 / 107 40% 1 19.11.2026 -
Alan Velasco Boca Juniors Aktiv 134 / 133 40% 5 15.11.2026 -
Diego Rossi Monterrey Aktiv 134 / 140 40% 9 13.11.2026 -
Bradley Mabunda SuperSport United Aktiv 108 / 120 40% 1 13.11.2026 -
Sebastián Villa Boca Juniors Aktiv 126 / 121 40% 5 08.11.2026 -
Michael Cooper Sheffield United Aktiv 133 / 122 40% 1 08.11.2026 -
Tomás Durso Atlético Tucumán Aktiv 124 / 112 40% 1 08.11.2026 -
Kévin Denkey FC Cincinnati Aktiv 123 / 133 40% 6 05.11.2026 -
Breel Embolo Atlanta United FC Aktiv 142 / 141 40% 5 03.11.2026 -
Paulo Dybala AS Roma Aktiv 154 / 157 40% 2 01.11.2026 -
Wessam Abou Ali Columbus Crew Aktiv 126 / 133 40% 5 23.10.2026 -
Agustín Ruberto River Plate Aktiv 117 / 127 40% 2 22.10.2026 -
Sebastián Cocimano Nueva Chicago Aktiv 116 / 110 40% 1 22.10.2026 -
Ramiro Ruiz Rodríguez Atlético Tucumán Aktiv 129 / 119 40% 1 22.10.2026 -
Gabriel Jesus Barcelona Aktiv 152 / 151 40% 5 20.10.2026 -
Nicolás Fernández Sassuolo Aktiv 134 / 120 40% 1 17.10.2026 -
Leo Ceara Kashima Antlers Aktiv 132 / 137 40% 3 16.10.2026 -
Alexander Díaz Deportivo Riestra Aktiv 123 / 125 40% 1 13.10.2026 -
Luca Martínez Dupuy Godoy Cruz Aktiv 121 / 121 40% 1 10.10.2026 -
Joaquín Correa Estudiantes Aktiv 137 / 124 40% 1 07.10.2026 -
Jordan Morris Seattle Sounders Aktiv 132 / 130 40% 4 02.10.2026 -
Dejan Joveljić Seattle Sounders Aktiv 127 / 126 40% 4 28.09.2026 -
Ezequiel Almirón Estudiantes Aktiv 112 / 118 40% 1 27.09.2026 -
Misael Sosa Godoy Cruz Aktiv 107 / 119 40% 1 22.09.2026 -
Juan Rocca Gimnasia y Tiro Aktiv 109 / 110 40% 1 22.09.2026 -
Erison Kawasaki Frontale Aktiv 124 / 126 40% 1 19.09.2026 -
Myrto Uzuni Austin FC Aktiv 135 / 128 40% 1 19.09.2026 -
Barış Alper Yılmaz Galatasaray Aktiv 154 / 138 40% 1 18.09.2026 -
Josh Sargent Toronto FC Aktiv 125 / 131 40% 2 13.09.2026 -
Agustín Venezia Iquique Aktiv 107 / 105 40% 1 13.09.2026 -
Pep Biel Charlotte Football Club Aktiv 131 / 126 40% 1 09.09.2026 -
Harold Preciado Aktiv 123 / 123 40% 2 07.09.2026 -
Brayan Hurtado Antofagasta Aktiv 96 / 100 40% 1 07.09.2026 -
Martín Ojeda Orlando City Aktiv 137 / 129 40% 2 01.09.2026 -
Federico Girotti Alianza Lima Aktiv 125 / 122 40% 1 07.08.2026 -
Rafael Navarro St. Louis CITY SC Aktiv 129 / 129 40% 1 06.08.2026 -
Carlos Moreno Pachuca Aktiv 134 / 123 40% 1 02.08.2026 -
Sebastián Cáceres Celta Aktiv 132 / 126 40% 1 02.08.2026 -